sensor_id;sensor_type;location;lat;lon;timestamp;P1;durP1;ratioP1;P2;durP2;ratioP2
44078;SDS011;29744;49.078;12.878;2023-03-14T00:03:59;0.50;;;0.40;;
44078;SDS011;29744;49.078;12.878;2023-03-14T00:08:59;0.47;;;0.40;;
44078;SDS011;29744;49.078;12.878;2023-03-14T00:14:00;0.70;;;0.45;;
44078;SDS011;29744;49.078;12.878;2023-03-14T00:19:00;0.52;;;0.40;;
44078;SDS011;29744;49.078;12.878;2023-03-14T00:24:00;0.40;;;0.40;;
44078;SDS011;29744;49.078;12.878;2023-03-14T00:29:01;0.45;;;0.40;;
44078;SDS011;29744;49.078;12.878;2023-03-14T00:34:04;0.40;;;0.40;;
44078;SDS011;29744;49.078;12.878;2023-03-14T00:39:04;0.52;;;0.40;;
44078;SDS011;29744;49.078;12.878;2023-03-14T00:44:04;0.50;;;0.40;;
44078;SDS011;29744;49.078;12.878;2023-03-14T00:49:05;0.60;;;0.40;;
44078;SDS011;29744;49.078;12.878;2023-03-14T00:54:05;0.75;;;0.40;;
44078;SDS011;29744;49.078;12.878;2023-03-14T00:59:05;0.50;;;0.30;;
44078;SDS011;29744;49.078;12.878;2023-03-14T01:04:05;0.60;;;0.40;;
44078;SDS011;29744;49.078;12.878;2023-03-14T01:09:06;0.55;;;0.47;;
44078;SDS011;29744;49.078;12.878;2023-03-14T01:14:06;0.45;;;0.40;;
44078;SDS011;29744;49.078;12.878;2023-03-14T01:19:06;0.60;;;0.43;;
44078;SDS011;29744;49.078;12.878;2023-03-14T01:24:10;0.60;;;0.40;;
44078;SDS011;29744;49.078;12.878;2023-03-14T01:29:11;0.30;;;0.30;;
44078;SDS011;29744;49.078;12.878;2023-03-14T01:34:11;0.45;;;0.28;;
44078;SDS011;29744;49.078;12.878;2023-03-14T01:39:12;0.45;;;0.30;;
44078;SDS011;29744;49.078;12.878;2023-03-14T01:44:13;0.50;;;0.40;;
44078;SDS011;29744;49.078;12.878;2023-03-14T01:49:21;0.40;;;0.40;;
44078;SDS011;29744;49.078;12.878;2023-03-14T01:54:32;0.82;;;0.40;;
44078;SDS011;29744;49.078;12.878;2023-03-14T01:59:39;0.80;;;0.50;;
44078;SDS011;29744;49.078;12.878;2023-03-14T02:04:42;0.60;;;0.50;;
44078;SDS011;29744;49.078;12.878;2023-03-14T02:09:43;0.30;;;0.30;;
44078;SDS011;29744;49.078;12.878;2023-03-14T02:14:44;0.40;;;0.40;;
44078;SDS011;29744;49.078;12.878;2023-03-14T02:19:55;0.57;;;0.40;;
44078;SDS011;29744;49.078;12.878;2023-03-14T02:30:27;0.60;;;0.40;;
44078;SDS011;29744;49.078;12.878;2023-03-14T02:35:29;0.40;;;0.40;;
44078;SDS011;29744;49.078;12.878;2023-03-14T02:40:35;0.30;;;0.30;;
44078;SDS011;29744;49.078;12.878;2023-03-14T02:45:45;1.00;;;0.40;;
44078;SDS011;29744;49.078;12.878;2023-03-14T02:50:47;0.20;;;0.20;;
44078;SDS011;29744;49.078;12.878;2023-03-14T02:55:50;0.70;;;0.45;;
44078;SDS011;29744;49.078;12.878;2023-03-14T03:00:51;0.70;;;0.30;;
44078;SDS011;29744;49.078;12.878;2023-03-14T03:05:52;0.35;;;0.30;;
44078;SDS011;29744;49.078;12.878;2023-03-14T03:10:53;0.38;;;0.30;;
44078;SDS011;29744;49.078;12.878;2023-03-14T03:15:54;0.30;;;0.30;;
44078;SDS011;29744;49.078;12.878;2023-03-14T03:20:54;0.82;;;0.52;;
44078;SDS011;29744;49.078;12.878;2023-03-14T03:25:54;0.55;;;0.40;;
44078;SDS011;29744;49.078;12.878;2023-03-14T03:30:55;0.50;;;0.40;;
44078;SDS011;29744;49.078;12.878;2023-03-14T03:35:55;0.38;;;0.38;;
44078;SDS011;29744;49.078;12.878;2023-03-14T03:40:55;0.40;;;0.30;;
44078;SDS011;29744;49.078;12.878;2023-03-14T03:45:55;0.20;;;0.20;;
44078;SDS011;29744;49.078;12.878;2023-03-14T03:50:56;0.47;;;0.40;;
44078;SDS011;29744;49.078;12.878;2023-03-14T03:55:56;0.30;;;0.20;;
44078;SDS011;29744;49.078;12.878;2023-03-14T04:00:56;0.30;;;0.30;;
44078;SDS011;29744;49.078;12.878;2023-03-14T04:06:00;0.50;;;0.35;;
44078;SDS011;29744;49.078;12.878;2023-03-14T04:11:02;0.40;;;0.32;;
44078;SDS011;29744;49.078;12.878;2023-03-14T04:16:03;0.93;;;0.40;;
44078;SDS011;29744;49.078;12.878;2023-03-14T04:21:04;0.32;;;0.30;;
44078;SDS011;29744;49.078;12.878;2023-03-14T04:26:04;0.30;;;0.30;;
44078;SDS011;29744;49.078;12.878;2023-03-14T04:31:08;0.77;;;0.40;;
44078;SDS011;29744;49.078;12.878;2023-03-14T04:36:10;0.38;;;0.32;;
44078;SDS011;29744;49.078;12.878;2023-03-14T04:41:11;0.30;;;0.30;;
44078;SDS011;29744;49.078;12.878;2023-03-14T04:46:11;0.35;;;0.30;;
44078;SDS011;29744;49.078;12.878;2023-03-14T04:51:12;0.40;;;0.22;;
44078;SDS011;29744;49.078;12.878;2023-03-14T04:56:12;0.45;;;0.40;;
44078;SDS011;29744;49.078;12.878;2023-03-14T05:01:12;0.30;;;0.30;;
44078;SDS011;29744;49.078;12.878;2023-03-14T05:06:13;0.40;;;0.30;;
44078;SDS011;29744;49.078;12.878;2023-03-14T05:11:13;0.43;;;0.40;;
44078;SDS011;29744;49.078;12.878;2023-03-14T05:16:13;0.30;;;0.30;;
44078;SDS011;29744;49.078;12.878;2023-03-14T05:21:14;0.38;;;0.25;;
44078;SDS011;29744;49.078;12.878;2023-03-14T05:26:14;0.25;;;0.25;;
44078;SDS011;29744;49.078;12.878;2023-03-14T05:31:16;0.28;;;0.25;;
44078;SDS011;29744;49.078;12.878;2023-03-14T05:36:16;0.30;;;0.28;;
44078;SDS011;29744;49.078;12.878;2023-03-14T05:41:17;0.43;;;0.30;;
44078;SDS011;29744;49.078;12.878;2023-03-14T05:46:17;0.50;;;0.38;;
44078;SDS011;29744;49.078;12.878;2023-03-14T05:51:17;0.25;;;0.25;;
44078;SDS011;29744;49.078;12.878;2023-03-14T05:56:17;0.47;;;0.30;;
44078;SDS011;29744;49.078;12.878;2023-03-14T06:01:18;0.38;;;0.30;;
44078;SDS011;29744;49.078;12.878;2023-03-14T06:06:18;0.20;;;0.20;;
44078;SDS011;29744;49.078;12.878;2023-03-14T06:11:18;0.30;;;0.30;;
44078;SDS011;29744;49.078;12.878;2023-03-14T06:16:19;0.30;;;0.20;;
44078;SDS011;29744;49.078;12.878;2023-03-14T06:21:19;0.40;;;0.25;;
44078;SDS011;29744;49.078;12.878;2023-03-14T06:26:20;0.20;;;0.20;;
44078;SDS011;29744;49.078;12.878;2023-03-14T06:31:22;0.30;;;0.30;;
44078;SDS011;29744;49.078;12.878;2023-03-14T06:36:23;0.20;;;0.20;;
44078;SDS011;29744;49.078;12.878;2023-03-14T06:41:23;0.20;;;0.20;;
44078;SDS011;29744;49.078;12.878;2023-03-14T06:46:25;0.38;;;0.30;;
44078;SDS011;29744;49.078;12.878;2023-03-14T06:51:26;0.25;;;0.20;;
44078;SDS011;29744;49.078;12.878;2023-03-14T06:56:26;0.20;;;0.13;;
44078;SDS011;29744;49.078;12.878;2023-03-14T07:01:27;0.20;;;0.20;;
44078;SDS011;29744;49.078;12.878;2023-03-14T07:06:29;0.30;;;0.30;;
44078;SDS011;29744;49.078;12.878;2023-03-14T07:11:30;0.20;;;0.20;;
44078;SDS011;29744;49.078;12.878;2023-03-14T07:16:30;0.20;;;0.20;;
44078;SDS011;29744;49.078;12.878;2023-03-14T07:21:32;0.30;;;0.20;;
44078;SDS011;29744;49.078;12.878;2023-03-14T07:26:34;0.28;;;0.28;;
44078;SDS011;29744;49.078;12.878;2023-03-14T07:31:35;0.15;;;0.15;;
44078;SDS011;29744;49.078;12.878;2023-03-14T07:36:35;0.28;;;0.28;;
44078;SDS011;29744;49.078;12.878;2023-03-14T07:41:35;0.30;;;0.20;;
44078;SDS011;29744;49.078;12.878;2023-03-14T07:46:36;1.30;;;0.28;;
44078;SDS011;29744;49.078;12.878;2023-03-14T07:51:36;1.35;;;0.40;;
44078;SDS011;29744;49.078;12.878;2023-03-14T07:56:36;0.47;;;0.20;;
44078;SDS011;29744;49.078;12.878;2023-03-14T08:01:37;0.20;;;0.20;;
44078;SDS011;29744;49.078;12.878;2023-03-14T08:06:37;0.60;;;0.28;;
44078;SDS011;29744;49.078;12.878;2023-03-14T08:11:37;0.22;;;0.20;;
44078;SDS011;29744;49.078;12.878;2023-03-14T08:16:37;0.95;;;0.30;;
44078;SDS011;29744;49.078;12.878;2023-03-14T08:21:38;0.28;;;0.20;;
44078;SDS011;29744;49.078;12.878;2023-03-14T08:26:38;0.15;;;0.15;;
44078;SDS011;29744;49.078;12.878;2023-03-14T08:31:38;0.66;;;0.18;;
44078;SDS011;29744;49.078;12.878;2023-03-14T08:36:39;0.10;;;0.10;;
44078;SDS011;29744;49.078;12.878;2023-03-14T08:41:39;0.20;;;0.20;;
44078;SDS011;29744;49.078;12.878;2023-03-14T08:46:44;0.22;;;0.20;;
44078;SDS011;29744;49.078;12.878;2023-03-14T08:51:44;0.20;;;0.10;;
44078;SDS011;29744;49.078;12.878;2023-03-14T08:56:44;0.88;;;0.26;;
44078;SDS011;29744;49.078;12.878;2023-03-14T09:01:45;0.20;;;0.20;;
44078;SDS011;29744;49.078;12.878;2023-03-14T09:06:45;0.30;;;0.20;;
44078;SDS011;29744;49.078;12.878;2023-03-14T09:11:45;0.20;;;0.20;;
44078;SDS011;29744;49.078;12.878;2023-03-14T09:16:46;0.20;;;0.20;;
44078;SDS011;29744;49.078;12.878;2023-03-14T09:21:46;0.20;;;0.17;;
44078;SDS011;29744;49.078;12.878;2023-03-14T09:26:46;0.20;;;0.20;;
44078;SDS011;29744;49.078;12.878;2023-03-14T09:31:46;0.20;;;0.20;;
44078;SDS011;29744;49.078;12.878;2023-03-14T09:36:47;0.25;;;0.20;;
44078;SDS011;29744;49.078;12.878;2023-03-14T09:41:47;0.20;;;0.20;;
44078;SDS011;29744;49.078;12.878;2023-03-14T09:46:51;0.22;;;0.10;;
44078;SDS011;29744;49.078;12.878;2023-03-14T09:51:54;0.20;;;0.20;;
44078;SDS011;29744;49.078;12.878;2023-03-14T09:56:56;0.20;;;0.20;;
44078;SDS011;29744;49.078;12.878;2023-03-14T10:02:00;0.20;;;0.10;;
44078;SDS011;29744;49.078;12.878;2023-03-14T10:07:12;0.22;;;0.20;;
44078;SDS011;29744;49.078;12.878;2023-03-14T10:12:15;0.25;;;0.20;;
44078;SDS011;29744;49.078;12.878;2023-03-14T10:17:17;2.85;;;0.50;;
44078;SDS011;29744;49.078;12.878;2023-03-14T10:22:19;0.50;;;0.28;;
44078;SDS011;29744;49.078;12.878;2023-03-14T10:27:22;1.17;;;0.40;;
44078;SDS011;29744;49.078;12.878;2023-03-14T10:32:32;0.65;;;0.30;;
44078;SDS011;29744;49.078;12.878;2023-03-14T10:37:43;0.98;;;0.20;;
44078;SDS011;29744;49.078;12.878;2023-03-14T10:42:49;0.38;;;0.30;;
44078;SDS011;29744;49.078;12.878;2023-03-14T10:47:51;0.50;;;0.30;;
44078;SDS011;29744;49.078;12.878;2023-03-14T10:52:53;1.15;;;0.50;;
44078;SDS011;29744;49.078;12.878;2023-03-14T10:57:54;0.50;;;0.30;;
44078;SDS011;29744;49.078;12.878;2023-03-14T11:08:13;1.00;;;0.20;;
44078;SDS011;29744;49.078;12.878;2023-03-14T11:18:48;0.55;;;0.30;;
44078;SDS011;29744;49.078;12.878;2023-03-14T11:34:53;0.47;;;0.30;;
44078;SDS011;29744;49.078;12.878;2023-03-14T11:39:56;0.65;;;0.22;;
44078;SDS011;29744;49.078;12.878;2023-03-14T11:44:57;0.75;;;0.40;;
44078;SDS011;29744;49.078;12.878;2023-03-14T11:50:04;1.33;;;0.40;;
44078;SDS011;29744;49.078;12.878;2023-03-14T11:55:20;0.32;;;0.30;;
44078;SDS011;29744;49.078;12.878;2023-03-14T12:00:26;0.28;;;0.22;;
44078;SDS011;29744;49.078;12.878;2023-03-14T12:10:46;0.52;;;0.20;;
44078;SDS011;29744;49.078;12.878;2023-03-14T12:15:54;0.47;;;0.20;;
44078;SDS011;29744;49.078;12.878;2023-03-14T12:20:59;0.30;;;0.30;;
44078;SDS011;29744;49.078;12.878;2023-03-14T12:42:01;0.32;;;0.20;;
44078;SDS011;29744;49.078;12.878;2023-03-14T12:52:19;0.30;;;0.30;;
44078;SDS011;29744;49.078;12.878;2023-03-14T13:02:45;0.43;;;0.30;;
44078;SDS011;29744;49.078;12.878;2023-03-14T13:12:55;0.30;;;0.30;;
44078;SDS011;29744;49.078;12.878;2023-03-14T13:18:17;0.23;;;0.20;;
44078;SDS011;29744;49.078;12.878;2023-03-14T13:23:25;0.20;;;0.20;;
44078;SDS011;29744;49.078;12.878;2023-03-14T13:28:30;0.10;;;0.10;;
44078;SDS011;29744;49.078;12.878;2023-03-14T13:33:32;0.30;;;0.20;;
44078;SDS011;29744;49.078;12.878;2023-03-14T13:38:34;0.30;;;0.30;;
44078;SDS011;29744;49.078;12.878;2023-03-14T13:43:36;0.22;;;0.13;;
44078;SDS011;29744;49.078;12.878;2023-03-14T13:48:51;0.30;;;0.20;;
44078;SDS011;29744;49.078;12.878;2023-03-14T13:53:55;0.47;;;0.30;;
44078;SDS011;29744;49.078;12.878;2023-03-14T13:58:55;0.38;;;0.20;;
44078;SDS011;29744;49.078;12.878;2023-03-14T14:03:56;0.20;;;0.20;;
44078;SDS011;29744;49.078;12.878;2023-03-14T14:09:17;0.25;;;0.20;;
44078;SDS011;29744;49.078;12.878;2023-03-14T14:14:21;0.65;;;0.32;;
44078;SDS011;29744;49.078;12.878;2023-03-14T14:19:23;0.40;;;0.20;;
44078;SDS011;29744;49.078;12.878;2023-03-14T14:24:32;0.10;;;0.10;;
44078;SDS011;29744;49.078;12.878;2023-03-14T14:29:34;0.25;;;0.17;;
44078;SDS011;29744;49.078;12.878;2023-03-14T14:34:39;0.20;;;0.17;;
44078;SDS011;29744;49.078;12.878;2023-03-14T14:39:41;0.30;;;0.15;;
44078;SDS011;29744;49.078;12.878;2023-03-14T14:44:41;0.40;;;0.32;;
44078;SDS011;29744;49.078;12.878;2023-03-14T14:49:44;0.60;;;0.20;;
44078;SDS011;29744;49.078;12.878;2023-03-14T14:54:50;0.77;;;0.20;;
44078;SDS011;29744;49.078;12.878;2023-03-14T14:59:55;0.20;;;0.20;;
44078;SDS011;29744;49.078;12.878;2023-03-14T15:05:00;0.20;;;0.20;;
44078;SDS011;29744;49.078;12.878;2023-03-14T15:10:00;0.32;;;0.20;;
44078;SDS011;29744;49.078;12.878;2023-03-14T15:15:00;0.10;;;0.10;;
44078;SDS011;29744;49.078;12.878;2023-03-14T15:20:01;0.20;;;0.20;;
44078;SDS011;29744;49.078;12.878;2023-03-14T15:25:03;0.28;;;0.10;;
44078;SDS011;29744;49.078;12.878;2023-03-14T15:30:04;0.63;;;0.50;;
44078;SDS011;29744;49.078;12.878;2023-03-14T15:35:05;0.57;;;0.13;;
44078;SDS011;29744;49.078;12.878;2023-03-14T15:40:09;0.13;;;0.13;;
44078;SDS011;29744;49.078;12.878;2023-03-14T15:45:13;0.35;;;0.20;;
44078;SDS011;29744;49.078;12.878;2023-03-14T15:50:14;0.20;;;0.20;;
44078;SDS011;29744;49.078;12.878;2023-03-14T15:55:14;0.13;;;0.10;;
44078;SDS011;29744;49.078;12.878;2023-03-14T16:00:16;0.10;;;0.10;;
44078;SDS011;29744;49.078;12.878;2023-03-14T16:05:18;0.10;;;0.10;;
44078;SDS011;29744;49.078;12.878;2023-03-14T16:10:19;0.45;;;0.20;;
44078;SDS011;29744;49.078;12.878;2023-03-14T16:15:19;0.47;;;0.20;;
44078;SDS011;29744;49.078;12.878;2023-03-14T16:20:20;0.20;;;0.20;;
44078;SDS011;29744;49.078;12.878;2023-03-14T16:25:21;0.70;;;0.20;;
44078;SDS011;29744;49.078;12.878;2023-03-14T16:30:21;0.52;;;0.20;;
44078;SDS011;29744;49.078;12.878;2023-03-14T16:35:22;0.43;;;0.28;;
44078;SDS011;29744;49.078;12.878;2023-03-14T16:40:22;0.17;;;0.17;;
44078;SDS011;29744;49.078;12.878;2023-03-14T16:45:22;0.20;;;0.20;;
44078;SDS011;29744;49.078;12.878;2023-03-14T16:50:23;0.93;;;0.30;;
44078;SDS011;29744;49.078;12.878;2023-03-14T16:55:23;0.22;;;0.20;;
44078;SDS011;29744;49.078;12.878;2023-03-14T17:00:23;0.10;;;0.10;;
44078;SDS011;29744;49.078;12.878;2023-03-14T17:05:24;0.15;;;0.15;;
44078;SDS011;29744;49.078;12.878;2023-03-14T17:10:24;0.40;;;0.20;;
44078;SDS011;29744;49.078;12.878;2023-03-14T17:15:24;0.10;;;0.10;;
44078;SDS011;29744;49.078;12.878;2023-03-14T17:20:25;0.20;;;0.20;;
44078;SDS011;29744;49.078;12.878;2023-03-14T17:25:25;0.10;;;0.10;;
44078;SDS011;29744;49.078;12.878;2023-03-14T17:30:25;0.42;;;0.20;;
44078;SDS011;29744;49.078;12.878;2023-03-14T17:35:26;0.17;;;0.10;;
44078;SDS011;29744;49.078;12.878;2023-03-14T17:40:26;0.17;;;0.10;;
44078;SDS011;29744;49.078;12.878;2023-03-14T17:45:27;0.10;;;0.10;;
44078;SDS011;29744;49.078;12.878;2023-03-14T17:50:27;0.10;;;0.10;;
44078;SDS011;29744;49.078;12.878;2023-03-14T17:55:27;0.15;;;0.10;;
44078;SDS011;29744;49.078;12.878;2023-03-14T18:00:27;0.20;;;0.20;;
44078;SDS011;29744;49.078;12.878;2023-03-14T18:05:28;0.10;;;0.10;;
44078;SDS011;29744;49.078;12.878;2023-03-14T18:10:28;0.10;;;0.10;;
44078;SDS011;29744;49.078;12.878;2023-03-14T18:15:28;0.10;;;0.10;;
44078;SDS011;29744;49.078;12.878;2023-03-14T18:20:32;0.10;;;0.10;;
44078;SDS011;29744;49.078;12.878;2023-03-14T18:25:33;0.20;;;0.10;;
44078;SDS011;29744;49.078;12.878;2023-03-14T18:30:33;0.10;;;0.10;;
44078;SDS011;29744;49.078;12.878;2023-03-14T18:35:35;0.10;;;0.10;;
44078;SDS011;29744;49.078;12.878;2023-03-14T18:40:36;0.13;;;0.10;;
44078;SDS011;29744;49.078;12.878;2023-03-14T18:45:36;0.10;;;0.10;;
44078;SDS011;29744;49.078;12.878;2023-03-14T18:50:37;0.20;;;0.20;;
44078;SDS011;29744;49.078;12.878;2023-03-14T18:55:37;0.22;;;0.10;;
44078;SDS011;29744;49.078;12.878;2023-03-14T19:00:37;0.10;;;0.10;;
44078;SDS011;29744;49.078;12.878;2023-03-14T19:05:41;0.10;;;0.10;;
44078;SDS011;29744;49.078;12.878;2023-03-14T19:10:42;0.22;;;0.10;;
44078;SDS011;29744;49.078;12.878;2023-03-14T19:15:43;0.10;;;0.10;;
44078;SDS011;29744;49.078;12.878;2023-03-14T19:20:43;0.10;;;0.10;;
44078;SDS011;29744;49.078;12.878;2023-03-14T19:25:54;0.20;;;0.10;;
44078;SDS011;29744;49.078;12.878;2023-03-14T19:30:54;0.28;;;0.10;;
44078;SDS011;29744;49.078;12.878;2023-03-14T19:35:55;0.20;;;0.15;;
44078;SDS011;29744;49.078;12.878;2023-03-14T19:40:56;0.00;;;0.00;;
44078;SDS011;29744;49.078;12.878;2023-03-14T19:45:57;0.40;;;0.20;;
44078;SDS011;29744;49.078;12.878;2023-03-14T19:50:58;0.10;;;0.10;;
44078;SDS011;29744;49.078;12.878;2023-03-14T19:55:58;0.45;;;0.20;;
44078;SDS011;29744;49.078;12.878;2023-03-14T20:00:59;0.10;;;0.10;;
44078;SDS011;29744;49.078;12.878;2023-03-14T20:06:02;0.10;;;0.10;;
44078;SDS011;29744;49.078;12.878;2023-03-14T20:11:04;0.50;;;0.13;;
44078;SDS011;29744;49.078;12.878;2023-03-14T20:16:06;0.68;;;0.10;;
44078;SDS011;29744;49.078;12.878;2023-03-14T20:21:09;0.10;;;0.10;;
44078;SDS011;29744;49.078;12.878;2023-03-14T20:26:14;0.17;;;0.10;;
44078;SDS011;29744;49.078;12.878;2023-03-14T20:31:14;0.00;;;0.00;;
44078;SDS011;29744;49.078;12.878;2023-03-14T20:36:14;0.20;;;0.10;;
44078;SDS011;29744;49.078;12.878;2023-03-14T20:41:14;0.10;;;0.10;;
44078;SDS011;29744;49.078;12.878;2023-03-14T20:46:15;0.10;;;0.10;;
44078;SDS011;29744;49.078;12.878;2023-03-14T20:51:16;0.10;;;0.10;;
44078;SDS011;29744;49.078;12.878;2023-03-14T20:56:16;0.22;;;0.15;;
44078;SDS011;29744;49.078;12.878;2023-03-14T21:01:17;0.88;;;0.20;;
44078;SDS011;29744;49.078;12.878;2023-03-14T21:06:17;0.15;;;0.15;;
44078;SDS011;29744;49.078;12.878;2023-03-14T21:11:17;0.10;;;0.10;;
44078;SDS011;29744;49.078;12.878;2023-03-14T21:16:18;0.10;;;0.10;;
44078;SDS011;29744;49.078;12.878;2023-03-14T21:21:18;0.30;;;0.20;;
44078;SDS011;29744;49.078;12.878;2023-03-14T21:26:19;0.10;;;0.10;;
44078;SDS011;29744;49.078;12.878;2023-03-14T21:31:20;0.32;;;0.13;;
44078;SDS011;29744;49.078;12.878;2023-03-14T21:36:20;0.10;;;0.10;;
44078;SDS011;29744;49.078;12.878;2023-03-14T21:41:21;0.20;;;0.10;;
44078;SDS011;29744;49.078;12.878;2023-03-14T21:46:22;0.10;;;0.10;;
44078;SDS011;29744;49.078;12.878;2023-03-14T21:51:24;0.10;;;0.10;;
44078;SDS011;29744;49.078;12.878;2023-03-14T21:56:28;0.17;;;0.17;;
44078;SDS011;29744;49.078;12.878;2023-03-14T22:01:29;0.15;;;0.10;;
44078;SDS011;29744;49.078;12.878;2023-03-14T22:06:31;0.10;;;0.10;;
44078;SDS011;29744;49.078;12.878;2023-03-14T22:11:31;0.35;;;0.10;;
44078;SDS011;29744;49.078;12.878;2023-03-14T22:16:31;0.13;;;0.08;;
44078;SDS011;29744;49.078;12.878;2023-03-14T22:21:31;0.10;;;0.10;;
44078;SDS011;29744;49.078;12.878;2023-03-14T22:26:32;0.20;;;0.20;;
44078;SDS011;29744;49.078;12.878;2023-03-14T22:31:32;0.32;;;0.20;;
44078;SDS011;29744;49.078;12.878;2023-03-14T22:36:33;0.17;;;0.10;;
44078;SDS011;29744;49.078;12.878;2023-03-14T22:41:33;0.22;;;0.20;;
44078;SDS011;29744;49.078;12.878;2023-03-14T22:46:34;0.10;;;0.10;;
44078;SDS011;29744;49.078;12.878;2023-03-14T22:51:34;1.13;;;0.10;;
44078;SDS011;29744;49.078;12.878;2023-03-14T22:56:35;0.20;;;0.10;;
44078;SDS011;29744;49.078;12.878;2023-03-14T23:01:35;0.10;;;0.10;;
44078;SDS011;29744;49.078;12.878;2023-03-14T23:06:35;0.20;;;0.20;;
44078;SDS011;29744;49.078;12.878;2023-03-14T23:11:35;0.10;;;0.10;;
44078;SDS011;29744;49.078;12.878;2023-03-14T23:16:36;0.25;;;0.20;;
44078;SDS011;29744;49.078;12.878;2023-03-14T23:21:36;0.00;;;0.00;;
44078;SDS011;29744;49.078;12.878;2023-03-14T23:26:37;0.32;;;0.20;;
44078;SDS011;29744;49.078;12.878;2023-03-14T23:31:37;0.10;;;0.10;;
44078;SDS011;29744;49.078;12.878;2023-03-14T23:36:37;0.73;;;0.20;;
44078;SDS011;29744;49.078;12.878;2023-03-14T23:41:38;0.17;;;0.17;;
44078;SDS011;29744;49.078;12.878;2023-03-14T23:46:38;0.10;;;0.10;;
44078;SDS011;29744;49.078;12.878;2023-03-14T23:51:38;0.47;;;0.20;;
44078;SDS011;29744;49.078;12.878;2023-03-14T23:56:39;0.35;;;0.20;;
